Pagina principală
METAR-TAF:

METAR-TAF

Aeroporturi :

Barrow, Alaska, Statele Unite ale Americii

Latitudine: 71-17-07N, longitudine: 156-45-57W, elevație: 13 m

Observații meteo curente

Raportul a fost făcut în urmă cu 43 de minute, la 06:53 UTC
Vânt 16 kt de la Nord-est
Temperatură -23°C
Umiditate 29%
Presiune 1015 hPa
Vizibilitate: 16.1 km
Cer senin

METAR: PABR 230653Z 05016KT 10SM CLR M23/M36 A2997

Ora: 22:36 (07:36 UTC)

Prognoză

Raportul a fost făcut în urmă cu 1 oră și 58 de minute, la 05:38 UTC
Prognoză valabilă de la 23 ora 06 UTC la 24 ora 06 UTC
Vânt 16 kt de la Nord-est
Vizibilitate: 9.7 km
Nori puțini la o înălțime de 25000 picior
transport de zăpadă
De la 23 ora 1200 UTC
Vânt 12 kt de la Est/Nord-est
Vizibilitate: 10 km
Nori împrăștiați la o înălțime de 25000 picior

TAF: PABR 230538Z 2306/2406 05016KT 6SM BLSN FEW250 FM231200 06012KT P6SM SCT250

Observații și prognoze meteo pentru peste 4.000 de aeroporturi (rapoarte METAR și TAF).

Stațiile disponibile sunt reprezentate pe hartă prin puncte galbene și roșii.

Țineți indicatorul mouse-ului pe punctul dorit pentru a vedea denumirea stației.

Apoi, faceți clic pentru a vedea observațiile și prognozele meteorologice.

Pentru a schimba harta: Pentru mărire, faceți clic pe butoanele verzi cu cruce neagră; pentru micșorare, pe butonul verde cu o liniuță; pentru hărți învecinate, pe săgețile verzi.


METAR-TAF: